Mill Creek, Mississippi
Current Conditions -  °F | °C
As of 9:53 AM on Thursday 27 Nov 2014 (Local Time) from KASD Reporting Station
Clear Clear  
Wind Chill: 54°   Ceiling: Unl
Heat Index: 54°   Visibility: 10mi
Dew Point: 32°   Wind: 14mph
Humidity: 43%   Direction: 30°NNE
Pressure: 30.44"   Gusts: 22mph
Location:  30.6922°N, 89.5187°W
Report Text: KASD 271553Z AUTO 03012G19KT 10SM CLR 12/00 A3044 RMK AO2 SLP309 T01220000
Loading
Personal Weather Stations






























Interactive Weather Map New forecast layout! Learn more

10-Day Weather Forecast

Advertisements
Track Severe Weather on mobile